createdAt,value
2024-01-16T00:00:40.070Z,4.40
2024-01-16T00:01:40.029Z,3.20
2024-01-16T00:02:40.027Z,3.10
2024-01-16T00:03:40.028Z,3.90
2024-01-16T00:04:39.984Z,4.40
2024-01-16T00:05:40.004Z,3.60
2024-01-16T00:06:40.056Z,3.70
2024-01-16T00:07:40.005Z,4.70
2024-01-16T00:08:40.030Z,3.90
2024-01-16T00:09:39.928Z,3.60
2024-01-16T00:10:39.910Z,4.00
2024-01-16T00:11:40.004Z,3.60
2024-01-16T00:12:39.923Z,4.10
2024-01-16T00:13:39.898Z,3.90
2024-01-16T00:14:39.943Z,3.80
2024-01-16T00:15:39.866Z,3.30
2024-01-16T00:16:39.882Z,3.80
2024-01-16T00:17:40.015Z,3.40
2024-01-16T00:18:39.969Z,3.20
2024-01-16T00:19:39.844Z,3.30
2024-01-16T00:20:39.836Z,4.50
2024-01-16T00:21:39.792Z,3.20
2024-01-16T00:22:39.811Z,3.00
2024-01-16T00:23:39.848Z,3.10
2024-01-16T00:24:39.776Z,3.50
2024-01-16T00:25:39.749Z,4.40
2024-01-16T00:26:39.774Z,2.90
2024-01-16T00:27:39.740Z,4.00
2024-01-16T00:28:39.742Z,3.90
2024-01-16T00:29:39.778Z,3.40
2024-01-16T00:30:39.706Z,3.00
2024-01-16T00:31:39.693Z,4.30
2024-01-16T00:32:39.746Z,3.20
2024-01-16T00:33:39.826Z,3.20
2024-01-16T00:34:39.741Z,3.80
2024-01-16T00:35:39.715Z,3.80
2024-01-16T00:36:39.645Z,3.60
2024-01-16T00:37:39.651Z,3.40
2024-01-16T00:38:39.660Z,3.30
2024-01-16T00:39:39.603Z,4.30
2024-01-16T00:40:39.594Z,4.40
2024-01-16T00:41:39.640Z,3.90
2024-01-16T00:42:39.613Z,5.00
2024-01-16T00:43:39.568Z,5.20
2024-01-16T00:44:39.641Z,3.60
2024-01-16T00:45:39.541Z,3.70
2024-01-16T00:46:39.531Z,3.80
2024-01-16T00:47:39.694Z,4.50
2024-01-16T00:48:39.588Z,4.10
2024-01-16T00:49:39.538Z,4.10
2024-01-16T00:50:39.596Z,4.10
2024-01-16T00:51:39.475Z,4.00
2024-01-16T00:52:39.490Z,4.00
2024-01-16T00:53:39.515Z,3.70
2024-01-16T00:54:39.458Z,4.90
2024-01-16T00:55:39.419Z,3.70
2024-01-16T00:56:39.457Z,3.90
2024-01-16T00:57:39.411Z,3.70
2024-01-16T00:58:39.404Z,3.60
2024-01-16T00:59:39.493Z,3.60
2024-01-16T01:00:39.398Z,3.90
2024-01-16T01:01:39.421Z,4.90
2024-01-16T01:02:39.505Z,3.50
2024-01-16T01:03:39.363Z,3.60
2024-01-16T01:04:39.409Z,3.30
2024-01-16T01:05:39.483Z,2.90
2024-01-16T01:06:39.301Z,3.70
2024-01-16T01:07:39.305Z,3.50
2024-01-16T01:08:39.321Z,4.00
2024-01-16T01:09:39.277Z,3.90
2024-01-16T01:10:39.364Z,3.90
2024-01-16T01:11:39.278Z,3.00
2024-01-16T01:12:39.236Z,3.10
2024-01-16T01:13:39.219Z,4.30
2024-01-16T01:14:39.318Z,3.50
2024-01-16T01:15:39.235Z,3.20
2024-01-16T01:16:39.215Z,3.20
2024-01-16T01:17:39.282Z,3.30
2024-01-16T01:18:39.301Z,3.10
2024-01-16T01:19:39.267Z,4.00
2024-01-16T01:20:39.164Z,3.50
2024-01-16T01:21:39.152Z,3.30
2024-01-16T01:22:39.265Z,2.80
2024-01-16T01:23:39.177Z,3.00
2024-01-16T01:24:39.108Z,3.10
2024-01-16T01:25:39.113Z,2.60
2024-01-16T01:26:39.171Z,3.80
2024-01-16T01:27:39.075Z,3.10
2024-01-16T01:28:39.056Z,2.90
2024-01-16T01:29:39.070Z,3.00
2024-01-16T01:30:39.080Z,2.70
2024-01-16T01:31:39.124Z,2.70
2024-01-16T01:32:39.084Z,3.70
2024-01-16T01:33:39.139Z,2.40
2024-01-16T01:34:39.030Z,2.40
2024-01-16T01:35:39.017Z,2.60
2024-01-16T01:36:38.969Z,3.10
2024-01-16T01:37:38.980Z,3.00
2024-01-16T01:38:38.976Z,3.20
2024-01-16T01:39:38.954Z,3.00
2024-01-16T01:40:38.917Z,3.10
2024-01-16T01:41:38.941Z,3.40
2024-01-16T01:42:38.893Z,3.40
2024-01-16T01:43:38.936Z,3.30
2024-01-16T01:44:38.959Z,3.10
2024-01-16T01:45:38.875Z,3.30
2024-01-16T01:46:38.855Z,3.80
2024-01-16T01:47:38.903Z,3.60
2024-01-16T01:48:38.915Z,3.20
2024-01-16T01:49:38.928Z,3.70
2024-01-16T01:50:38.895Z,3.00
2024-01-16T01:51:38.814Z,3.20
2024-01-16T01:52:38.823Z,3.00
2024-01-16T01:53:38.842Z,3.50
2024-01-16T01:54:38.771Z,3.40
2024-01-16T01:55:38.767Z,3.00
2024-01-16T01:56:38.765Z,3.30
2024-01-16T01:57:38.752Z,3.50
2024-01-16T01:58:38.719Z,4.00
2024-01-16T01:59:38.743Z,3.50
2024-01-16T02:00:38.783Z,4.00
2024-01-16T02:01:38.710Z,3.00
2024-01-16T02:02:38.760Z,3.30
2024-01-16T02:03:38.722Z,3.70
2024-01-16T02:04:38.653Z,3.10
2024-01-16T02:05:38.665Z,3.40
2024-01-16T02:06:38.646Z,3.70
2024-01-16T02:07:38.648Z,3.30
2024-01-16T02:08:38.653Z,3.90
2024-01-16T02:09:38.653Z,3.60
2024-01-16T02:10:38.576Z,3.90
2024-01-16T02:11:38.673Z,3.20
2024-01-16T02:12:38.567Z,4.20
2024-01-16T02:13:38.545Z,3.80
2024-01-16T02:14:38.557Z,3.20
2024-01-16T02:15:38.577Z,3.50
2024-01-16T02:16:38.532Z,3.30
2024-01-16T02:17:38.598Z,3.30
2024-01-16T02:18:38.544Z,3.60
2024-01-16T02:19:38.530Z,3.50
2024-01-16T02:20:38.502Z,4.30
2024-01-16T02:21:38.553Z,3.80
2024-01-16T02:22:38.441Z,3.50
2024-01-16T02:23:38.486Z,3.70
2024-01-16T02:24:38.427Z,3.50
2024-01-16T02:25:38.433Z,3.80
2024-01-16T02:26:38.403Z,3.90
2024-01-16T02:27:38.405Z,4.00
2024-01-16T02:28:38.370Z,3.20
2024-01-16T02:29:38.453Z,3.80
2024-01-16T02:30:38.422Z,3.60
2024-01-16T02:31:38.375Z,3.30
2024-01-16T02:32:38.417Z,3.90
2024-01-16T02:33:38.403Z,4.40
2024-01-16T02:34:38.310Z,3.80
2024-01-16T02:35:38.382Z,3.90
2024-01-16T02:36:38.342Z,4.30
2024-01-16T02:37:38.294Z,3.50
2024-01-16T02:38:38.355Z,3.50
2024-01-16T02:39:38.253Z,3.90
2024-01-16T02:40:38.271Z,3.50
2024-01-16T02:41:38.267Z,4.40
2024-01-16T02:42:38.233Z,4.30
2024-01-16T02:43:38.245Z,3.30
2024-01-16T02:44:38.282Z,4.10
2024-01-16T02:45:38.200Z,4.60
2024-01-16T02:46:38.201Z,3.70
2024-01-16T02:47:38.225Z,3.60
2024-01-16T02:48:38.231Z,3.40
2024-01-16T02:49:38.268Z,4.20
2024-01-16T02:50:38.178Z,3.90
2024-01-16T02:51:38.158Z,3.90
2024-01-16T02:52:38.121Z,3.50
2024-01-16T02:53:38.162Z,4.50
2024-01-16T02:54:38.139Z,4.50
2024-01-16T02:55:38.094Z,3.50
2024-01-16T02:56:38.121Z,4.10
2024-01-16T02:57:38.125Z,3.90
2024-01-16T02:58:38.062Z,3.40
2024-01-16T02:59:38.111Z,4.40
2024-01-16T03:00:38.111Z,3.20
2024-01-16T03:01:38.032Z,3.60
2024-01-16T03:02:38.116Z,4.30
2024-01-16T03:03:38.063Z,3.50
2024-01-16T03:04:38.037Z,3.40
2024-01-16T03:05:38.049Z,4.70
2024-01-16T03:06:38.153Z,3.80
2024-01-16T03:07:37.984Z,3.50
2024-01-16T03:08:37.985Z,4.00
2024-01-16T03:09:37.974Z,3.70
2024-01-16T03:10:37.998Z,3.40
2024-01-16T03:11:38.056Z,3.90
2024-01-16T03:12:37.924Z,4.10
2024-01-16T03:13:37.922Z,3.30
2024-01-16T03:14:37.955Z,4.30
2024-01-16T03:15:37.923Z,3.10
2024-01-16T03:16:37.879Z,3.60
2024-01-16T03:17:37.982Z,3.40
2024-01-16T03:18:38.007Z,3.20
2024-01-16T03:19:37.842Z,3.30
2024-01-16T03:20:37.871Z,2.60
2024-01-16T03:21:37.856Z,3.80
2024-01-16T03:22:37.823Z,4.30
2024-01-16T03:23:37.895Z,4.40
2024-01-16T03:24:37.839Z,3.30
2024-01-16T03:25:37.777Z,3.20
2024-01-16T03:26:37.795Z,4.40
2024-01-16T03:27:37.772Z,3.70
2024-01-16T03:28:37.792Z,4.40
2024-01-16T03:29:37.874Z,3.60
2024-01-16T03:30:37.801Z,3.20
2024-01-16T03:31:37.749Z,3.90
2024-01-16T03:32:37.837Z,3.70
2024-01-16T03:33:37.848Z,3.80
2024-01-16T03:34:37.753Z,4.40
2024-01-16T03:35:37.764Z,3.70
2024-01-16T03:36:37.660Z,3.10
2024-01-16T03:37:38.264Z,3.40
2024-01-16T03:38:37.678Z,3.60
2024-01-16T03:39:37.661Z,3.40
2024-01-16T03:40:37.638Z,3.40
2024-01-16T03:41:37.663Z,4.00
2024-01-16T03:42:37.618Z,3.90
2024-01-16T03:43:37.588Z,3.00
2024-01-16T03:44:37.599Z,4.60
2024-01-16T03:45:37.584Z,3.80
2024-01-16T03:46:37.576Z,3.50
2024-01-16T03:47:37.658Z,4.00
2024-01-16T03:48:37.618Z,3.00
2024-01-16T03:49:37.546Z,4.30
2024-01-16T03:50:37.679Z,3.90
2024-01-16T03:51:37.599Z,3.90
2024-01-16T03:52:37.515Z,3.90
2024-01-16T03:53:37.542Z,4.50
2024-01-16T03:54:37.484Z,3.70
2024-01-16T03:55:37.504Z,4.10
2024-01-16T03:56:37.504Z,4.00
2024-01-16T03:57:37.469Z,4.30
2024-01-16T03:58:37.460Z,3.30
2024-01-16T03:59:37.487Z,3.70
2024-01-16T04:00:37.435Z,3.30
2024-01-16T04:01:37.423Z,3.30
2024-01-16T04:02:37.426Z,3.70
2024-01-16T04:03:37.433Z,3.40
2024-01-16T04:04:37.397Z,4.20
2024-01-16T04:05:37.402Z,4.90
2024-01-16T04:06:37.423Z,3.80
2024-01-16T04:07:37.401Z,3.60
2024-01-16T04:08:37.328Z,4.20
2024-01-16T04:09:37.320Z,3.60
2024-01-16T04:10:37.286Z,4.00
2024-01-16T04:11:47.309Z,3.30
2024-01-16T04:12:37.281Z,3.60
2024-01-16T04:13:37.276Z,3.50
2024-01-16T04:14:37.336Z,3.90
2024-01-16T04:15:37.235Z,3.60
2024-01-16T04:16:37.224Z,3.60
2024-01-16T04:17:37.294Z,3.30
2024-01-16T04:18:37.329Z,3.60
2024-01-16T04:19:37.299Z,3.90
2024-01-16T04:20:37.380Z,3.50
2024-01-16T04:21:37.173Z,3.40
2024-01-16T04:22:37.159Z,3.20
2024-01-16T04:23:37.245Z,3.80
2024-01-16T04:24:37.158Z,3.50
2024-01-16T04:25:37.151Z,4.20
2024-01-16T04:26:37.137Z,4.50
2024-01-16T04:27:37.161Z,4.60
2024-01-16T04:28:37.100Z,4.30
2024-01-16T04:29:37.149Z,4.00
2024-01-16T04:30:37.150Z,3.90
2024-01-16T04:31:37.093Z,3.40
2024-01-16T04:32:37.172Z,3.40
2024-01-16T04:33:37.218Z,4.10
2024-01-16T04:34:37.094Z,3.40
2024-01-16T04:35:37.118Z,3.30
2024-01-16T04:36:37.046Z,3.30
2024-01-16T04:37:37.001Z,3.90
2024-01-16T04:38:37.023Z,3.90
2024-01-16T04:39:36.982Z,4.30
2024-01-16T04:40:36.978Z,4.20
2024-01-16T04:41:37.051Z,4.30
2024-01-16T04:42:36.976Z,3.20
2024-01-16T04:43:36.961Z,3.80
2024-01-16T04:44:36.975Z,3.70
2024-01-16T04:45:36.914Z,2.80
2024-01-16T04:46:36.921Z,3.30
2024-01-16T04:47:36.982Z,3.20
2024-01-16T04:48:36.980Z,3.30
2024-01-16T04:49:36.940Z,3.80
2024-01-16T04:50:37.320Z,3.60
2024-01-16T04:51:36.852Z,3.30
2024-01-16T04:52:36.841Z,4.70
2024-01-16T04:53:36.876Z,3.50
2024-01-16T04:54:36.853Z,3.40
2024-01-16T04:55:36.831Z,4.40
2024-01-16T04:56:36.826Z,4.00
2024-01-16T04:57:36.808Z,3.30
2024-01-16T04:58:36.775Z,3.60
2024-01-16T04:59:36.894Z,3.70
2024-01-16T05:00:36.823Z,3.20
2024-01-16T05:01:36.755Z,3.40
2024-01-16T05:02:37.046Z,3.50
2024-01-16T05:03:36.817Z,3.20
2024-01-16T05:04:36.717Z,3.50
2024-01-16T05:05:36.933Z,3.40
2024-01-16T05:06:36.950Z,4.00
2024-01-16T05:07:36.853Z,3.30
2024-01-16T05:08:36.699Z,3.90
2024-01-16T05:09:36.829Z,4.40
2024-01-16T05:10:36.654Z,3.10
2024-01-16T05:11:36.759Z,3.20
2024-01-16T05:12:36.686Z,3.60
2024-01-16T05:13:36.632Z,4.00
2024-01-16T05:14:36.669Z,3.20
2024-01-16T05:15:36.637Z,3.30
2024-01-16T05:16:36.637Z,3.60
2024-01-16T05:17:36.740Z,3.20
2024-01-16T05:18:36.713Z,3.70
2024-01-16T05:19:36.621Z,3.40
2024-01-16T05:20:36.607Z,4.50
2024-01-16T05:21:36.562Z,3.60
2024-01-16T05:22:36.552Z,5.20
2024-01-16T05:23:36.596Z,4.00
2024-01-16T05:24:36.507Z,4.20
2024-01-16T05:25:36.487Z,3.40
2024-01-16T05:26:36.559Z,3.10
2024-01-16T05:27:36.473Z,3.40
2024-01-16T05:28:36.458Z,3.70
2024-01-16T05:29:36.545Z,4.00
2024-01-16T05:30:36.451Z,3.70
2024-01-16T05:31:36.477Z,4.10
2024-01-16T05:32:36.516Z,4.10
2024-01-16T05:33:36.519Z,3.90
2024-01-16T05:34:36.536Z,3.20
2024-01-16T05:35:36.423Z,4.80
2024-01-16T05:36:36.365Z,4.30
2024-01-16T05:37:36.359Z,3.60
2024-01-16T05:38:36.481Z,4.20
2024-01-16T05:39:36.348Z,4.10
2024-01-16T05:40:36.358Z,5.50
2024-01-16T05:41:36.489Z,4.30
2024-01-16T05:42:36.301Z,4.20
2024-01-16T05:43:36.308Z,4.10
2024-01-16T05:44:36.463Z,5.70
2024-01-16T05:45:36.286Z,4.00
2024-01-16T05:46:36.287Z,3.70
2024-01-16T05:47:36.418Z,4.00
2024-01-16T05:48:36.294Z,4.20
2024-01-16T05:49:36.296Z,5.00
2024-01-16T05:50:36.342Z,3.60
2024-01-16T05:51:36.218Z,3.90
2024-01-16T05:52:36.227Z,5.00
2024-01-16T05:53:36.248Z,4.40
2024-01-16T05:54:36.166Z,4.10
2024-01-16T05:55:36.190Z,4.00
2024-01-16T05:56:36.199Z,3.80
2024-01-16T05:57:36.149Z,3.80
2024-01-16T05:58:36.166Z,4.00
2024-01-16T05:59:36.155Z,3.30
2024-01-16T06:00:36.146Z,4.10
2024-01-16T06:01:36.128Z,4.00
2024-01-16T06:02:36.169Z,3.60
2024-01-16T06:03:36.094Z,4.20
2024-01-16T06:04:36.142Z,4.60
2024-01-16T06:05:36.099Z,4.60
2024-01-16T06:06:36.060Z,4.40
2024-01-16T06:07:36.068Z,4.60
2024-01-16T06:08:36.046Z,3.50
2024-01-16T06:09:36.040Z,5.00
2024-01-16T06:10:36.038Z,5.30
2024-01-16T06:11:36.179Z,4.30
2024-01-16T06:12:35.981Z,3.90
2024-01-16T06:13:35.976Z,4.90
2024-01-16T06:14:36.000Z,4.20
2024-01-16T06:15:35.972Z,6.60
2024-01-16T06:16:35.948Z,4.20
2024-01-16T06:17:36.027Z,5.20
2024-01-16T06:18:36.051Z,5.20
2024-01-16T06:19:35.977Z,6.80
2024-01-16T06:20:35.969Z,5.80
2024-01-16T06:21:35.912Z,6.60
2024-01-16T06:22:35.861Z,5.20
2024-01-16T06:23:35.901Z,6.00
2024-01-16T06:24:35.855Z,5.50
2024-01-16T06:25:35.905Z,6.00
2024-01-16T06:26:35.913Z,6.50
2024-01-16T06:27:35.844Z,4.90
2024-01-16T06:28:35.799Z,6.30
2024-01-16T06:29:36.259Z,6.10
2024-01-16T06:30:35.884Z,4.80
2024-01-16T06:31:35.824Z,5.60
2024-01-16T06:32:35.895Z,5.50
2024-01-16T06:33:36.000Z,6.20
2024-01-16T06:34:35.838Z,8.00
2024-01-16T06:35:35.835Z,10.40
2024-01-16T06:36:35.733Z,8.00
2024-01-16T06:37:35.720Z,9.40
2024-01-16T06:38:35.735Z,9.80
2024-01-16T06:39:35.748Z,10.10
2024-01-16T06:40:35.675Z,9.60
2024-01-16T06:41:35.786Z,9.90
2024-01-16T06:42:35.869Z,9.60
2024-01-16T06:43:35.643Z,8.10
2024-01-16T06:44:35.740Z,6.80
2024-01-16T06:45:35.657Z,6.60
2024-01-16T06:46:35.606Z,5.90
2024-01-16T06:47:35.726Z,7.40
2024-01-16T06:48:35.737Z,6.80
2024-01-16T06:49:35.871Z,5.90
2024-01-16T06:50:35.660Z,6.50
2024-01-16T06:51:35.575Z,6.50
2024-01-16T06:52:35.543Z,7.50
2024-01-16T06:53:35.621Z,6.70
2024-01-16T06:54:35.585Z,6.90
2024-01-16T06:55:35.532Z,6.40
2024-01-16T06:56:35.565Z,6.90
2024-01-16T06:57:35.500Z,6.50
2024-01-16T06:58:35.531Z,7.10
2024-01-16T06:59:35.499Z,5.50
2024-01-16T07:00:35.510Z,6.00
2024-01-16T07:01:35.464Z,5.60
2024-01-16T07:02:35.476Z,5.60
2024-01-16T07:03:35.482Z,5.70
2024-01-16T07:04:35.452Z,5.50
2024-01-16T07:05:35.493Z,6.70
2024-01-16T07:06:35.480Z,6.90
2024-01-16T07:07:35.398Z,8.00
2024-01-16T07:08:35.396Z,10.60
2024-01-16T07:09:35.379Z,15.30
2024-01-16T07:10:35.362Z,16.60
2024-01-16T07:11:35.372Z,14.00
2024-01-16T07:12:35.337Z,13.20
2024-01-16T07:13:35.457Z,12.10
2024-01-16T07:14:35.432Z,16.00
2024-01-16T07:15:35.311Z,18.40
2024-01-16T07:16:35.298Z,18.20
2024-01-16T07:17:35.318Z,26.80
2024-01-16T07:18:35.378Z,20.00
2024-01-16T07:19:35.282Z,18.00
2024-01-16T07:20:35.246Z,12.60
2024-01-16T07:21:35.290Z,9.60
2024-01-16T07:22:35.230Z,5.80
2024-01-16T07:23:35.263Z,6.90
2024-01-16T07:24:35.197Z,6.80
2024-01-16T07:25:35.215Z,7.60
2024-01-16T07:26:35.269Z,7.90
2024-01-16T07:27:35.153Z,7.20
2024-01-16T07:28:35.141Z,6.10
2024-01-16T07:29:35.153Z,7.80
2024-01-16T07:30:35.176Z,5.90
2024-01-16T07:31:35.144Z,5.50
2024-01-16T07:32:35.375Z,6.50
2024-01-16T07:33:35.294Z,6.40
2024-01-16T07:34:35.196Z,8.40
2024-01-16T07:35:35.187Z,22.70
2024-01-16T07:36:35.105Z,28.80
2024-01-16T07:37:35.092Z,40.60
2024-01-16T07:38:35.061Z,42.30
2024-01-16T07:39:35.078Z,44.40
2024-01-16T07:40:35.039Z,35.20
2024-01-16T07:41:35.075Z,33.40
2024-01-16T07:42:35.000Z,27.60
2024-01-16T07:43:35.023Z,22.60
2024-01-16T07:44:35.019Z,25.00
2024-01-16T07:45:34.977Z,27.30
2024-01-16T07:46:34.951Z,46.80
2024-01-16T07:47:34.996Z,60.40
2024-01-16T07:48:35.014Z,59.60
2024-01-16T07:49:34.981Z,57.80
2024-01-16T07:50:34.943Z,33.50
2024-01-16T07:51:34.890Z,45.70
2024-01-16T07:52:34.887Z,20.90
2024-01-16T07:53:34.930Z,23.00
2024-01-16T07:54:34.871Z,25.50
2024-01-16T07:55:34.860Z,17.00
2024-01-16T07:56:34.896Z,16.00
2024-01-16T07:57:34.851Z,13.40
2024-01-16T07:58:34.844Z,15.10
2024-01-16T07:59:34.937Z,15.00
2024-01-16T08:00:34.807Z,15.30
2024-01-16T08:01:34.832Z,13.10
2024-01-16T08:02:34.909Z,8.60
2024-01-16T08:03:34.791Z,6.40
2024-01-16T08:04:34.755Z,5.80
2024-01-16T08:05:34.824Z,5.00
2024-01-16T08:06:34.839Z,5.90
2024-01-16T08:07:34.730Z,7.00
2024-01-16T08:08:34.901Z,6.50
2024-01-16T08:09:34.704Z,6.00
2024-01-16T08:10:34.706Z,8.00
2024-01-16T08:11:34.776Z,12.40
2024-01-16T08:12:34.682Z,29.50
2024-01-16T08:13:34.679Z,20.40
2024-01-16T08:14:34.763Z,24.70
2024-01-16T08:15:34.651Z,20.10
2024-01-16T08:16:34.677Z,34.20
2024-01-16T08:17:34.753Z,23.60
2024-01-16T08:18:34.771Z,19.90
2024-01-16T08:19:34.648Z,16.60
2024-01-16T08:20:34.710Z,10.00
2024-01-16T08:21:34.598Z,8.20
2024-01-16T08:22:34.594Z,7.30
2024-01-16T08:23:34.565Z,6.40
2024-01-16T08:24:34.554Z,6.70
2024-01-16T08:25:34.657Z,6.10
2024-01-16T08:26:34.570Z,5.80
2024-01-16T08:27:34.580Z,9.90
2024-01-16T08:28:34.537Z,8.30
2024-01-16T08:29:34.576Z,7.50
2024-01-16T08:30:34.561Z,7.30
2024-01-16T08:31:34.525Z,6.90
2024-01-16T08:32:34.590Z,5.90
2024-01-16T08:33:40.420Z,5.30
2024-01-16T08:34:35.610Z,6.40
2024-01-16T08:35:34.653Z,6.30
2024-01-16T08:36:34.434Z,5.30
2024-01-16T08:37:34.467Z,5.60
2024-01-16T08:38:34.456Z,6.10
2024-01-16T08:39:34.458Z,6.00
2024-01-16T08:40:34.420Z,6.70
2024-01-16T08:41:34.396Z,5.60
2024-01-16T08:42:34.441Z,5.60
2024-01-16T08:43:34.416Z,5.10
2024-01-16T08:44:34.443Z,6.10
2024-01-16T08:45:34.373Z,6.60
2024-01-16T08:46:34.328Z,5.60
2024-01-16T08:47:34.485Z,5.80
2024-01-16T08:48:34.415Z,5.70
2024-01-16T08:49:34.374Z,5.50
2024-01-16T08:50:34.321Z,5.50
2024-01-16T08:51:34.306Z,5.20
2024-01-16T08:52:34.266Z,5.20
2024-01-16T08:53:34.321Z,6.00
2024-01-16T08:54:34.259Z,6.80
2024-01-16T08:55:34.258Z,7.70
2024-01-16T08:56:34.247Z,11.50
2024-01-16T08:57:34.262Z,7.70
2024-01-16T08:58:34.201Z,6.30
2024-01-16T08:59:34.269Z,7.80
2024-01-16T09:00:34.228Z,5.40
2024-01-16T09:01:34.184Z,5.60
2024-01-16T09:02:34.198Z,5.60
2024-01-16T09:03:34.150Z,6.90
2024-01-16T09:04:34.158Z,5.80
2024-01-16T09:05:34.209Z,6.70
2024-01-16T09:06:34.218Z,6.20
2024-01-16T09:07:34.226Z,6.00
2024-01-16T09:08:34.165Z,7.80
2024-01-16T09:09:34.072Z,8.70
2024-01-16T09:10:34.061Z,18.40
2024-01-16T09:11:34.182Z,12.20
2024-01-16T09:12:34.042Z,10.20
2024-01-16T09:13:34.045Z,8.90
2024-01-16T09:14:34.113Z,8.40
2024-01-16T09:15:34.030Z,8.50
2024-01-16T09:16:34.021Z,8.50
2024-01-16T09:17:34.135Z,7.30
2024-01-16T09:18:34.203Z,6.60
2024-01-16T09:19:34.093Z,8.20
2024-01-16T09:20:34.054Z,6.90
2024-01-16T09:21:33.945Z,4.90
2024-01-16T09:22:33.939Z,6.30
2024-01-16T09:23:33.973Z,5.80
2024-01-16T09:24:33.921Z,6.20
2024-01-16T09:25:33.944Z,5.90
2024-01-16T09:26:33.905Z,5.30
2024-01-16T09:27:33.878Z,4.60
2024-01-16T09:28:33.874Z,5.90
2024-01-16T09:29:33.945Z,5.70
2024-01-16T09:30:33.933Z,6.80
2024-01-16T09:31:33.888Z,5.40
2024-01-16T09:32:33.853Z,5.20
2024-01-16T09:33:33.979Z,5.30
2024-01-16T09:34:33.832Z,5.90
2024-01-16T09:35:33.845Z,6.60
2024-01-16T09:36:33.799Z,6.40
2024-01-16T09:37:33.787Z,6.10
2024-01-16T09:38:33.789Z,5.40
2024-01-16T09:39:33.742Z,5.70
2024-01-16T09:40:33.759Z,5.00
2024-01-16T09:41:33.822Z,5.60
2024-01-16T09:42:33.707Z,4.90
2024-01-16T09:43:33.704Z,6.30
2024-01-16T09:44:33.722Z,6.10
2024-01-16T09:45:33.675Z,5.80
2024-01-16T09:46:33.736Z,5.00
2024-01-16T09:47:33.940Z,5.10
2024-01-16T09:48:34.259Z,6.10
2024-01-16T09:49:33.654Z,4.90
2024-01-16T09:50:33.649Z,4.80
2024-01-16T09:51:33.608Z,4.90
2024-01-16T09:52:33.664Z,4.30
2024-01-16T09:53:33.601Z,5.50
2024-01-16T09:54:33.583Z,4.90
2024-01-16T09:55:33.568Z,5.50
2024-01-16T09:56:33.614Z,5.70
2024-01-16T09:57:33.569Z,5.30
2024-01-16T09:58:33.567Z,5.90
2024-01-16T09:59:33.573Z,6.20
2024-01-16T10:00:33.518Z,5.50
2024-01-16T10:01:33.489Z,5.70
2024-01-16T10:02:33.527Z,5.90
2024-01-16T10:03:33.587Z,5.70
2024-01-16T10:04:33.520Z,6.10
2024-01-16T10:05:33.667Z,4.80
2024-01-16T10:06:33.593Z,7.20
2024-01-16T10:07:33.425Z,6.60
2024-01-16T10:08:33.450Z,4.60
2024-01-16T10:09:33.440Z,4.70
2024-01-16T10:10:42.740Z,5.30
2024-01-16T10:11:34.437Z,5.70
2024-01-16T10:12:33.372Z,5.60
2024-01-16T10:13:33.375Z,4.60
2024-01-16T10:14:33.378Z,6.10
2024-01-16T10:15:33.353Z,5.50
2024-01-16T10:16:33.341Z,6.20
2024-01-16T10:17:33.422Z,6.40
2024-01-16T10:18:33.582Z,7.70
2024-01-16T10:19:43.183Z,7.40
2024-01-16T10:20:34.303Z,5.90
2024-01-16T10:21:33.326Z,5.80
2024-01-16T10:22:33.265Z,6.50
2024-01-16T10:23:33.290Z,6.60
2024-01-16T10:24:33.260Z,6.60
2024-01-16T10:25:33.230Z,4.90
2024-01-16T10:26:33.243Z,5.30
2024-01-16T10:27:33.204Z,6.00
2024-01-16T10:28:33.226Z,5.40
2024-01-16T10:29:43.231Z,6.60
2024-01-16T10:30:34.334Z,8.20
2024-01-16T10:31:33.281Z,6.50
2024-01-16T10:32:33.477Z,5.50
2024-01-16T10:33:36.220Z,6.80
2024-01-16T10:34:33.298Z,5.00
2024-01-16T10:35:33.190Z,5.00
2024-01-16T10:36:33.109Z,4.50
2024-01-16T10:37:33.098Z,6.30
2024-01-16T10:38:33.166Z,5.40
2024-01-16T10:39:40.992Z,6.10
2024-01-16T10:40:34.072Z,4.80
2024-01-16T10:41:33.135Z,4.50
2024-01-16T10:42:33.069Z,6.80
2024-01-16T10:43:33.045Z,5.40
2024-01-16T10:44:33.074Z,4.80
2024-01-16T10:45:33.020Z,5.40
2024-01-16T10:46:33.055Z,5.20
2024-01-16T10:47:33.047Z,4.30
2024-01-16T10:48:33.036Z,5.00
2024-01-16T10:49:42.784Z,6.00
2024-01-16T10:50:34.018Z,5.90
2024-01-16T10:51:32.995Z,4.60
2024-01-16T10:52:33.021Z,4.80
2024-01-16T10:53:32.955Z,5.50
2024-01-16T10:54:32.949Z,4.50
2024-01-16T10:55:32.952Z,5.10
2024-01-16T10:56:32.966Z,4.30
2024-01-16T10:57:32.884Z,4.30
2024-01-16T10:58:32.885Z,5.10
2024-01-16T10:59:32.926Z,4.70
2024-01-16T11:00:32.875Z,4.30
2024-01-16T11:01:32.855Z,4.40
2024-01-16T11:02:32.910Z,4.20
2024-01-16T11:03:32.914Z,4.90
2024-01-16T11:04:32.837Z,5.00
2024-01-16T11:05:32.959Z,4.60
2024-01-16T11:06:32.887Z,5.70
2024-01-16T11:07:32.800Z,5.10
2024-01-16T11:08:32.879Z,5.30
2024-01-16T11:09:32.745Z,4.30
2024-01-16T11:10:32.807Z,5.90
2024-01-16T11:11:32.762Z,4.60
2024-01-16T11:12:32.729Z,4.70
2024-01-16T11:13:32.702Z,5.50
2024-01-16T11:14:32.766Z,6.70
2024-01-16T11:15:32.687Z,5.30
2024-01-16T11:16:32.698Z,4.20
2024-01-16T11:17:32.717Z,4.70
2024-01-16T11:18:32.736Z,5.10
2024-01-16T11:20:54.887Z,4.50
2024-01-16T11:21:33.741Z,5.90
2024-01-16T11:22:32.730Z,4.40
2024-01-16T11:23:32.637Z,5.60
2024-01-16T11:24:32.599Z,6.80
2024-01-16T11:25:32.616Z,5.20
2024-01-16T11:26:32.652Z,5.70
2024-01-16T11:27:32.580Z,5.00
2024-01-16T11:28:32.530Z,4.00
2024-01-16T11:29:32.787Z,4.60
2024-01-16T11:30:32.643Z,4.70
2024-01-16T11:31:32.607Z,5.60
2024-01-16T11:32:33.525Z,5.00
2024-01-16T11:33:32.751Z,4.80
2024-01-16T11:34:32.548Z,5.10
2024-01-16T11:35:32.493Z,4.70
2024-01-16T11:36:32.493Z,5.40
2024-01-16T11:37:32.479Z,6.60
2024-01-16T11:38:32.464Z,5.40
2024-01-16T11:39:32.467Z,4.70
2024-01-16T11:40:32.408Z,4.10
2024-01-16T11:41:39.747Z,4.80
2024-01-16T11:42:33.434Z,4.60
2024-01-16T11:43:32.367Z,4.90
2024-01-16T11:44:32.439Z,3.60
2024-01-16T11:45:32.341Z,5.10
2024-01-16T11:46:32.366Z,4.40
2024-01-16T11:47:32.385Z,4.70
2024-01-16T11:48:32.393Z,4.70
2024-01-16T11:49:32.337Z,5.20
2024-01-16T11:50:32.351Z,4.10
2024-01-16T11:51:32.300Z,5.60
2024-01-16T11:52:32.288Z,4.20
2024-01-16T11:53:32.317Z,4.50
2024-01-16T11:54:32.247Z,4.10
2024-01-16T11:55:32.553Z,5.60
2024-01-16T11:56:40.830Z,6.10
2024-01-16T11:57:33.302Z,3.60
2024-01-16T11:58:32.246Z,5.60
2024-01-16T11:59:32.232Z,3.70
2024-01-16T12:00:32.204Z,3.60
2024-01-16T12:01:32.201Z,4.30
2024-01-16T12:02:32.220Z,4.50
2024-01-16T12:03:35.487Z,4.50
2024-01-16T12:04:32.176Z,4.20
2024-01-16T12:05:32.202Z,3.60
2024-01-16T12:06:32.323Z,4.60
2024-01-16T12:07:32.144Z,6.40
2024-01-16T12:08:32.196Z,5.50
2024-01-16T12:09:32.112Z,4.30
2024-01-16T12:10:32.120Z,5.60
2024-01-16T12:11:40.878Z,4.00
2024-01-16T12:12:33.040Z,4.60
2024-01-16T12:13:32.041Z,5.00
2024-01-16T12:14:32.084Z,5.00
2024-01-16T12:15:32.027Z,5.80
2024-01-16T12:16:32.055Z,4.80
2024-01-16T12:17:32.107Z,5.20
2024-01-16T12:18:40.154Z,4.40
2024-01-16T12:19:33.148Z,4.70
2024-01-16T12:20:32.121Z,4.30
2024-01-16T12:21:31.958Z,4.50
2024-01-16T12:22:31.987Z,5.10
2024-01-16T12:23:31.953Z,5.60
2024-01-16T12:24:32.014Z,4.90
2024-01-16T12:26:00.174Z,3.70
2024-01-16T12:26:32.950Z,4.90
2024-01-16T12:27:31.925Z,4.30
2024-01-16T12:28:33.558Z,4.90
2024-01-16T12:29:31.909Z,5.60
2024-01-16T12:30:31.898Z,4.10
2024-01-16T12:31:31.847Z,5.30
2024-01-16T12:32:31.974Z,3.60
2024-01-16T12:33:32.157Z,4.30
2024-01-16T12:34:31.897Z,4.20
2024-01-16T12:35:32.052Z,4.10
2024-01-16T12:36:31.860Z,4.60
2024-01-16T12:37:31.791Z,4.10
2024-01-16T12:38:31.865Z,4.00
2024-01-16T12:39:31.779Z,3.30
2024-01-16T12:40:31.740Z,4.30
2024-01-16T12:41:39.607Z,4.40
2024-01-16T12:42:32.761Z,3.80
2024-01-16T12:43:31.756Z,4.60
2024-01-16T12:44:31.760Z,5.20
2024-01-16T12:45:31.686Z,5.10
2024-01-16T12:46:31.760Z,5.20
2024-01-16T12:47:31.729Z,3.90
2024-01-16T12:48:32.002Z,6.40
2024-01-16T12:49:31.808Z,4.90
2024-01-16T12:50:31.719Z,7.60
2024-01-16T12:51:31.665Z,4.30
2024-01-16T12:52:31.618Z,3.70
2024-01-16T12:53:31.671Z,4.20
2024-01-16T12:54:31.624Z,5.50
2024-01-16T12:55:31.591Z,5.30
2024-01-16T12:56:38.053Z,5.10
2024-01-16T12:57:32.602Z,4.40
2024-01-16T12:58:31.565Z,5.50
2024-01-16T12:59:31.567Z,3.50
2024-01-16T13:00:31.609Z,5.40
2024-01-16T13:01:38.880Z,4.60
2024-01-16T13:02:32.572Z,5.00
2024-01-16T13:03:31.554Z,5.40
2024-01-16T13:04:31.500Z,6.70
2024-01-16T13:05:31.624Z,5.20
2024-01-16T13:06:31.505Z,5.50
2024-01-16T13:07:31.465Z,5.30
2024-01-16T13:08:31.450Z,4.90
2024-01-16T13:09:31.441Z,5.30
2024-01-16T13:10:31.424Z,5.10
2024-01-16T13:11:38.709Z,5.30
2024-01-16T13:12:32.382Z,6.10
2024-01-16T13:13:31.414Z,7.10
2024-01-16T13:14:31.389Z,8.50
2024-01-16T13:15:31.478Z,6.40
2024-01-16T13:16:31.369Z,5.10
2024-01-16T13:17:31.446Z,6.40